Time;durP1;ratioP1;P1;durP2;ratioP2;P2;SDS_P1;SDS_P2;PMS_P1;PMS_P2;Temp;Humidity;BMP_temperature;BMP_pressure;BME280_temperature;BME280_humidity;BME280_pressure;Samples;Min_cycle;Max_cycle;Signal;HPM_P1;HPM_P2
2022/10/07 00:01:02;;;;;;;3.27;2.40;;;21.70;99.90;;;;;;5063690;28;20422;-87
2022/10/07 00:03:36;;;;;;;3.08;2.10;;;21.90;99.90;;;;;;5076916;28;20387;-88
2022/10/07 00:06:06;;;;;;;2.45;1.88;;;22.00;99.90;;;;;;5060860;28;20406;-91
2022/10/07 00:08:35;;;;;;;2.10;1.90;;;22.10;99.90;;;;;;5076734;28;20425;-90
2022/10/07 00:11:11;;;;;;;2.27;1.90;;;22.20;99.90;;;;;;5081848;28;20795;-87
2022/10/07 00:13:42;;;;;;;3.50;1.98;;;22.40;99.90;;;;;;5075745;28;20418;-88
2022/10/07 00:16:16;;;;;;;2.20;1.70;;;22.60;99.90;;;;;;5079392;28;20382;-88
2022/10/07 00:18:45;;;;;;;2.72;1.88;;;22.70;99.90;;;;;;5076228;28;20370;-88
2022/10/07 00:21:15;;;;;;;2.33;2.13;;;22.60;99.90;;;;;;5075229;28;20441;-87
2022/10/07 00:23:45;;;;;;;2.88;1.90;;;22.50;99.90;;;;;;5076529;28;20401;-88
2022/10/07 00:26:19;;;;;;;2.10;1.90;;;22.70;99.90;;;;;;5078084;28;20398;-85
2022/10/07 00:28:47;;;;;;;2.22;1.85;;;22.80;99.90;;;;;;5069689;28;20378;-88
2022/10/07 00:31:19;;;;;;;2.67;2.00;;;22.70;99.90;;;;;;5073109;28;20392;-93
2022/10/07 00:33:46;;;;;;;2.57;1.90;;;22.90;99.90;;;;;;5072082;28;20397;-90
2022/10/07 00:36:26;;;;;;;2.05;1.75;;;22.80;99.90;;;;;;5078554;28;20448;-89
2022/10/07 00:39:01;;;;;;;2.42;1.80;;;22.40;99.90;;;;;;5045793;28;20450;-87
2022/10/07 00:41:36;;;;;;;2.15;1.95;;;22.00;99.90;;;;;;5046674;28;20384;-88
2022/10/07 00:44:31;;;;;;;1.80;1.70;;;21.80;99.90;;;;;;5079558;28;20374;-87
2022/10/07 00:47:30;;;;;;;1.83;1.73;;;21.80;99.90;;;;;;5069504;28;20405;-87
2022/10/07 00:50:21;;;;;;;2.00;1.73;;;21.90;99.90;;;;;;5080883;28;20374;-87
2022/10/07 00:52:56;;;;;;;2.33;1.80;;;22.20;99.90;;;;;;5066536;28;20867;-86
2022/10/07 00:55:28;;;;;;;2.10;1.85;;;22.30;99.90;;;;;;5083564;28;20408;-89
2022/10/07 00:58:00;;;;;;;2.30;2.10;;;22.60;99.90;;;;;;5072324;28;20382;-86
2022/10/07 01:00:29;;;;;;;2.22;2.05;;;22.70;99.90;;;;;;5050608;28;20787;-88
2022/10/07 01:03:02;;;;;;;2.00;1.90;;;22.80;99.90;;;;;;5066416;28;20773;-89
2022/10/07 01:05:38;;;;;;;3.33;2.30;;;22.70;99.90;;;;;;5057087;28;20416;-87
2022/10/07 01:08:07;;;;;;;2.50;2.30;;;22.50;99.90;;;;;;5010907;28;20391;-90
2022/10/07 01:11:12;;;;;;;2.65;2.30;;;22.40;99.90;;;;;;5034965;28;20386;-87
2022/10/07 01:14:14;;;;;;;3.22;2.30;;;22.30;99.90;;;;;;4817135;28;5193563;-87
2022/10/07 01:17:17;;;;;;;2.70;2.50;;;22.20;99.90;;;;;;4998729;28;20384;-91
2022/10/07 01:19:56;;;;;;;2.97;2.30;;;22.30;99.90;;;;;;4999561;28;20461;-92
2022/10/07 01:22:48;;;;;;;2.70;2.50;;;22.20;99.90;;;;;;4996997;28;20389;-90
2022/10/07 01:25:27;;;;;;;2.95;2.55;;;22.10;99.90;;;;;;4996128;28;20400;-89
2022/10/07 01:28:13;;;;;;;3.40;2.60;;;21.90;99.90;;;;;;4999234;28;20844;-89
2022/10/07 01:30:46;;;;;;;2.92;2.70;;;21.80;99.90;;;;;;4995084;28;20376;-88
2022/10/07 01:33:26;;;;;;;4.03;2.70;;;21.50;99.90;;;;;;4996800;28;20388;-92
2022/10/07 01:35:56;;;;;;;3.72;2.80;;;21.30;99.90;;;;;;4996869;28;20918;-88
2022/10/07 01:38:27;;;;;;;3.75;2.67;;;21.40;99.90;;;;;;4966788;28;20404;-90
2022/10/07 01:41:13;;;;;;;3.20;2.77;;;21.50;99.90;;;;;;4985756;28;20407;-90
2022/10/07 01:43:43;;;;;;;2.38;2.17;;;21.60;99.90;;;;;;4981326;28;20443;-88
2022/10/07 01:46:19;;;;;;;3.50;2.40;;;21.60;99.90;;;;;;5000316;28;20401;-91
2022/10/07 01:48:47;;;;;;;2.88;2.08;;;21.70;99.90;;;;;;4984086;28;20936;-88
2022/10/07 01:51:16;;;;;;;3.70;2.60;;;21.80;99.90;;;;;;4997755;28;20396;-90
2022/10/07 01:54:26;;;;;;;2.55;2.10;;;21.70;99.90;;;;;;4998748;28;20384;-88
2022/10/07 01:57:13;;;;;;;2.40;2.20;;;21.70;99.90;;;;;;5033408;28;20386;-93
2022/10/07 01:59:46;;;;;;;2.40;2.20;;;21.60;99.90;;;;;;5002857;28;20490;-87
2022/10/07 02:02:28;;;;;;;3.47;2.10;;;21.50;99.90;;;;;;5039420;28;20381;-88
2022/10/07 02:05:14;;;;;;;1.83;1.73;;;21.60;99.90;;;;;;5037753;28;20387;-87
2022/10/07 02:08:11;;;;;;;2.67;2.30;;;21.60;99.90;;;;;;5034760;28;20484;-88
2022/10/07 02:11:02;;;;;;;2.95;2.08;;;21.60;99.90;;;;;;5036936;28;20392;-91
2022/10/07 02:14:22;;;;;;;2.50;1.92;;;21.60;99.90;;;;;;5024563;28;20411;-91
2022/10/07 02:17:21;;;;;;;2.03;1.83;;;21.50;99.90;;;;;;4965160;28;20394;-91
2022/10/07 02:19:53;;;;;;;2.55;2.00;;;21.40;99.90;;;;;;4932123;29;20399;-91
2022/10/07 02:22:25;;;;;;;2.60;1.80;;;21.40;99.90;;;;;;4950779;28;20395;-88
2022/10/07 02:24:57;;;;;;;2.97;1.75;;;21.50;99.90;;;;;;4978993;28;20414;-89
2022/10/07 02:27:34;;;;;;;2.28;1.60;;;21.50;99.90;;;;;;4964239;28;20467;-88
2022/10/07 02:30:10;;;;;;;2.53;1.50;;;21.30;99.90;;;;;;4995891;28;20920;-89
2022/10/07 02:32:43;;;;;;;1.75;1.60;;;21.20;99.90;;;;;;4965219;28;20406;-91
2022/10/07 02:35:27;;;;;;;1.55;1.45;;;21.20;99.90;;;;;;4948217;29;20392;-90
2022/10/07 02:37:58;;;;;;;2.47;1.40;;;21.20;99.90;;;;;;4958533;28;20392;-92
2022/10/07 02:40:31;;;;;;;1.52;1.42;;;21.10;99.90;;;;;;4950243;29;20390;-91
2022/10/07 02:43:09;;;;;;;2.23;1.50;;;21.10;99.90;;;;;;4932162;29;20395;-92
2022/10/07 02:45:49;;;;;;;1.70;1.50;;;21.00;99.90;;;;;;4901181;29;20486;-90
2022/10/07 02:48:29;;;;;;;1.60;1.50;;;20.90;99.90;;;;;;4926947;29;20391;-92
2022/10/07 02:51:05;;;;;;;3.50;1.40;;;20.90;99.90;;;;;;4941464;29;20382;-88
2022/10/07 02:53:34;;;;;;;1.90;1.45;;;20.90;99.90;;;;;;4925361;29;20393;-89
2022/10/07 02:56:01;;;;;;;2.10;1.30;;;20.80;99.90;;;;;;4940261;29;20448;-92
2022/10/07 02:58:30;;;;;;;1.50;1.30;;;20.80;99.90;;;;;;4941105;29;20400;-90
2022/10/07 03:01:05;;;;;;;2.20;1.40;;;20.70;99.90;;;;;;4938178;29;20393;-91
2022/10/07 03:03:32;;;;;;;2.17;1.35;;;20.80;99.90;;;;;;4939316;29;20410;-91
2022/10/07 03:06:00;;;;;;;3.00;1.30;;;20.70;99.90;;;;;;4937011;29;20409;-93
2022/10/07 03:08:27;;;;;;;2.30;1.40;;;20.60;99.90;;;;;;4938046;29;20393;-95
2022/10/07 03:10:58;;;;;;;1.50;1.30;;;20.50;99.90;;;;;;4939187;29;20402;-89
2022/10/07 03:13:25;;;;;;;2.22;1.50;;;20.30;99.90;;;;;;4985722;28;20493;-93
2022/10/07 03:15:53;;;;;;;2.42;1.45;;;20.20;99.90;;;;;;5018761;28;20423;-93
2022/10/07 03:18:27;;;;;;;1.63;1.30;;;20.00;99.90;;;;;;5014304;28;20407;-88
2022/10/07 03:20:58;;;;;;;2.20;1.25;;;20.00;99.90;;;;;;5011932;28;20383;-91
2022/10/07 03:23:27;;;;;;;1.40;1.30;;;19.90;99.90;;;;;;5055167;28;20429;-96
2022/10/07 03:25:57;;;;;;;2.00;1.20;;;19.80;99.90;;;;;;5068867;28;20408;-89
2022/10/07 03:28:26;;;;;;;1.80;1.40;;;19.70;99.90;;;;;;5075394;28;20370;-92
2022/10/07 03:30:54;;;;;;;1.95;1.20;;;19.60;99.90;;;;;;5075721;28;20397;-93
2022/10/07 03:33:25;;;;;;;2.15;1.40;;;19.50;99.90;;;;;;5073062;28;20729;-90
2022/10/07 03:35:52;;;;;;;1.30;1.10;;;19.50;99.90;;;;;;5071334;28;20374;-94
2022/10/07 03:38:21;;;;;;;1.77;1.17;;;19.40;99.90;;;;;;5064480;28;20396;-90
2022/10/07 03:40:48;;;;;;;1.23;1.17;;;19.30;99.90;;;;;;5047303;28;20754;-91
2022/10/07 03:43:16;;;;;;;1.60;1.20;;;19.20;99.90;;;;;;5070874;28;20370;-90
2022/10/07 03:45:50;;;;;;;2.20;1.20;;;19.10;99.90;;;;;;5070903;28;20390;-94
2022/10/07 03:48:17;;;;;;;2.20;1.40;;;19.00;99.90;;;;;;5070722;28;20432;-91
2022/10/07 03:50:56;;;;;;;2.30;1.15;;;19.00;99.90;;;;;;5073524;28;20406;-90
2022/10/07 03:53:25;;;;;;;1.58;1.30;;;18.90;99.90;;;;;;5074009;28;20463;-91
2022/10/07 03:55:52;;;;;;;1.27;1.20;;;18.80;99.90;;;;;;5051278;28;20381;-90
2022/10/07 03:58:19;;;;;;;2.58;1.20;;;18.70;99.90;;;;;;5073938;28;20390;-90
2022/10/07 04:00:46;;;;;;;1.85;1.20;;;18.70;99.90;;;;;;5075486;28;20373;-91
2022/10/07 04:03:15;;;;;;;1.92;1.45;;;18.60;99.90;;;;;;5074061;28;21299;-89
2022/10/07 04:05:44;;;;;;;2.42;1.30;;;18.50;99.90;;;;;;5074482;28;20436;-94
2022/10/07 04:08:16;;;;;;;3.07;1.50;;;18.40;99.90;;;;;;5076628;28;20378;-92
2022/10/07 04:10:48;;;;;;;2.30;1.60;;;18.40;99.90;;;;;;5066413;28;20422;-93
2022/10/07 04:13:15;;;;;;;2.92;1.55;;;18.30;99.90;;;;;;5037939;28;20471;-91
2022/10/07 04:15:42;;;;;;;2.53;1.70;;;18.30;99.90;;;;;;5060922;28;20376;-92
2022/10/07 04:18:10;;;;;;;2.78;1.63;;;18.30;99.90;;;;;;5055753;28;20387;-90
2022/10/07 04:20:40;;;;;;;3.78;1.70;;;18.30;99.90;;;;;;5053290;28;20890;-94
2022/10/07 04:23:07;;;;;;;2.75;1.70;;;18.20;99.90;;;;;;5053247;28;20387;-91
2022/10/07 04:25:34;;;;;;;2.38;1.73;;;18.10;99.90;;;;;;5051333;28;20388;-90
2022/10/07 04:28:06;;;;;;;5.60;1.90;;;18.10;99.90;;;;;;5051715;28;20749;-89
2022/10/07 04:30:42;;;;;;;2.47;1.80;;;18.10;99.90;;;;;;5052445;28;21321;-92
2022/10/07 04:33:10;;;;;;;3.03;2.00;;;18.10;99.90;;;;;;5022584;28;20384;-93
2022/10/07 04:35:39;;;;;;;3.72;1.80;;;18.10;99.90;;;;;;5052367;28;20387;-91
2022/10/07 04:38:09;;;;;;;3.75;2.05;;;18.10;99.90;;;;;;5051074;28;20384;-92
2022/10/07 04:40:39;;;;;;;5.20;2.10;;;18.00;99.90;;;;;;5050808;28;20380;-89
2022/10/07 04:43:22;;;;;;;3.60;2.30;;;18.00;99.90;;;;;;5050677;28;20458;-90
2022/10/07 04:46:13;;;;;;;3.20;2.40;;;18.00;99.90;;;;;;5050726;28;20537;-91
2022/10/07 04:48:42;;;;;;;3.87;2.60;;;18.00;99.90;;;;;;5039600;28;20376;-89
2022/10/07 04:51:10;;;;;;;3.58;2.83;;;18.00;99.90;;;;;;5051212;28;20907;-89
2022/10/07 04:53:38;;;;;;;3.65;2.80;;;17.90;99.90;;;;;;5040801;28;20740;-90
2022/10/07 04:56:07;;;;;;;4.25;2.78;;;17.90;99.90;;;;;;5066798;28;20379;-87
2022/10/07 04:58:34;;;;;;;5.25;3.03;;;17.90;99.90;;;;;;5074374;28;20370;-91
2022/10/07 05:01:06;;;;;;;4.47;3.30;;;17.90;99.90;;;;;;5075050;28;20370;-93
2022/10/07 05:03:39;;;;;;;3.63;2.67;;;17.80;99.90;;;;;;5077665;28;20374;-88
2022/10/07 05:06:08;;;;;;;3.25;2.80;;;17.80;99.90;;;;;;5061327;28;20406;-95
2022/10/07 05:08:35;;;;;;;4.15;2.70;;;17.70;99.90;;;;;;5072226;28;20431;-94
2022/10/07 05:11:02;;;;;;;4.50;2.70;;;17.70;99.90;;;;;;5067230;28;20370;-88
2022/10/07 05:13:30;;;;;;;4.43;2.60;;;17.70;99.90;;;;;;5075548;28;20409;-94
2022/10/07 05:15:59;;;;;;;3.15;2.50;;;17.70;99.90;;;;;;5076190;28;20370;-95
2022/10/07 05:18:28;;;;;;;3.53;2.90;;;17.70;99.90;;;;;;5060411;28;20380;-90
2022/10/07 05:20:55;;;;;;;4.57;3.00;;;17.60;99.90;;;;;;5075242;28;20375;-90
2022/10/07 05:23:27;;;;;;;4.10;3.03;;;17.60;99.90;;;;;;5055286;28;20894;-86
2022/10/07 05:25:58;;;;;;;4.72;3.28;;;17.60;99.90;;;;;;5072607;28;20400;-92
2022/10/07 05:28:25;;;;;;;3.88;3.15;;;17.50;99.90;;;;;;5073001;28;20378;-92
2022/10/07 05:31:13;;;;;;;4.78;3.50;;;17.60;99.90;;;;;;5073137;28;20407;-90
2022/10/07 05:33:41;;;;;;;3.13;2.83;;;17.50;99.90;;;;;;5072430;28;20377;-91
2022/10/07 05:36:11;;;;;;;3.65;2.50;;;17.60;99.90;;;;;;5055179;28;20402;-88
2022/10/07 05:38:38;;;;;;;3.92;2.75;;;17.50;99.90;;;;;;5054890;28;20395;-90
2022/10/07 05:41:09;;;;;;;4.90;2.75;;;17.50;99.90;;;;;;5072181;28;20988;-88
2022/10/07 05:43:40;;;;;;;3.63;2.40;;;17.50;99.90;;;;;;5072278;28;20431;-91
2022/10/07 05:46:13;;;;;;;4.25;3.00;;;17.50;99.90;;;;;;5071719;28;20402;-87
2022/10/07 05:48:44;;;;;;;4.30;2.97;;;17.40;99.90;;;;;;5071848;28;20859;-89
2022/10/07 05:51:13;;;;;;;2.80;2.60;;;17.40;99.90;;;;;;5071996;28;20440;-87
2022/10/07 05:53:41;;;;;;;3.72;2.97;;;17.30;99.90;;;;;;5072311;28;20378;-88
2022/10/07 05:56:10;;;;;;;3.70;3.17;;;17.30;99.90;;;;;;5071498;28;20881;-92
2022/10/07 05:58:37;;;;;;;4.20;3.35;;;17.20;99.90;;;;;;5059226;28;20374;-87
2022/10/07 06:01:07;;;;;;;4.60;3.20;;;17.20;99.90;;;;;;5072194;28;20726;-88
2022/10/07 06:03:34;;;;;;;4.47;3.10;;;17.20;99.90;;;;;;5073589;28;20455;-90
2022/10/07 06:06:01;;;;;;;3.60;3.00;;;17.20;99.90;;;;;;5072153;28;20416;-89
2022/10/07 06:08:29;;;;;;;3.35;3.03;;;17.10;99.90;;;;;;5071886;28;20712;-92
2022/10/07 06:13:50;;;;;;;4.85;3.03;;;17.10;99.90;;;;;;5075309;28;20401;-91
2022/10/07 06:16:18;;;;;;;3.72;3.30;;;17.10;99.90;;;;;;5075988;28;20382;-90
2022/10/07 06:18:46;;;;;;;4.72;3.22;;;17.10;99.90;;;;;;5053351;28;20389;-88
2022/10/07 06:21:13;;;;;;;5.03;3.40;;;17.00;99.90;;;;;;5072230;28;20389;-88
2022/10/07 06:23:40;;;;;;;4.07;3.30;;;17.00;99.90;;;;;;5073197;28;20457;-89
2022/10/07 06:26:09;;;;;;;6.35;3.67;;;17.00;99.90;;;;;;5072818;28;20401;-89
2022/10/07 06:28:41;;;;;;;4.30;3.60;;;17.00;99.90;;;;;;5071785;28;20894;-89
2022/10/07 06:31:11;;;;;;;5.03;3.80;;;17.00;99.90;;;;;;5057388;28;20877;-89
2022/10/07 06:33:38;;;;;;;4.63;3.75;;;17.00;99.90;;;;;;5072611;28;20374;-89
2022/10/07 06:36:10;;;;;;;4.97;3.78;;;17.00;99.90;;;;;;5075865;28;20382;-89
2022/10/07 06:38:37;;;;;;;4.82;3.90;;;17.00;99.90;;;;;;5078188;28;20910;-89
2022/10/07 06:41:05;;;;;;;5.18;3.50;;;17.00;99.90;;;;;;5081484;28;20382;-88
2022/10/07 06:43:33;;;;;;;3.63;3.33;;;17.00;99.90;;;;;;5089524;28;20366;-88
2022/10/07 06:46:02;;;;;;;5.03;3.50;;;16.70;99.90;;;;;;5068038;28;20484;-89
2022/10/07 06:48:32;;;;;;;3.90;3.30;;;17.00;99.90;;;;;;5073243;28;20714;-88
2022/10/07 06:51:02;;;;;;;4.90;3.60;;;17.00;99.90;;;;;;5031126;28;20389;-88
2022/10/07 06:53:29;;;;;;;3.85;3.45;;;17.00;99.90;;;;;;5014322;28;20392;-88
2022/10/07 06:56:00;;;;;;;4.13;3.30;;;17.00;99.90;;;;;;5025595;28;20394;-88
2022/10/07 06:58:27;;;;;;;4.13;3.70;;;17.00;99.90;;;;;;5030882;28;20738;-88
2022/10/07 07:00:58;;;;;;;4.50;4.10;;;16.90;99.90;;;;;;5031400;28;20381;-88
2022/10/07 07:03:26;;;;;;;5.27;3.77;;;17.00;99.90;;;;;;5031686;28;20377;-87
2022/10/07 07:05:53;;;;;;;3.70;3.28;;;17.00;99.90;;;;;;5031373;28;20467;-89
2022/10/07 07:08:23;;;;;;;3.95;3.20;;;16.90;99.90;;;;;;5030696;28;20507;-88
2022/10/07 07:10:50;;;;;;;3.67;3.20;;;17.00;99.90;;;;;;5027513;28;20896;-89
2022/10/07 07:13:17;;;;;;;4.03;3.20;;;16.90;99.90;;;;;;5024932;28;20439;-88
2022/10/07 07:15:52;;;;;;;4.32;3.45;;;16.90;99.90;;;;;;5031411;28;20382;-87
2022/10/07 07:18:20;;;;;;;4.30;3.30;;;16.80;99.90;;;;;;5047083;28;20384;-88
2022/10/07 07:20:47;;;;;;;4.15;3.40;;;16.80;99.90;;;;;;5052741;28;20472;-87
2022/10/07 07:23:14;;;;;;;3.65;3.35;;;16.90;99.90;;;;;;5051788;28;20997;-88
2022/10/07 07:25:44;;;;;;;4.28;3.70;;;16.90;99.90;;;;;;5048371;28;20396;-88
2022/10/07 07:28:15;;;;;;;4.10;3.70;;;16.80;99.90;;;;;;5043992;28;20399;-87
2022/10/07 07:30:43;;;;;;;5.25;3.70;;;16.80;99.90;;;;;;5067124;28;20378;-88
2022/10/07 07:33:12;;;;;;;4.03;3.42;;;16.80;99.90;;;;;;5080024;28;20396;-88
2022/10/07 07:35:42;;;;;;;5.17;3.60;;;16.80;99.90;;;;;;5096347;28;20392;-88
2022/10/07 07:38:09;;;;;;;3.40;3.20;;;16.80;99.90;;;;;;5084349;28;20381;-87
2022/10/07 07:40:38;;;;;;;4.32;3.50;;;16.80;99.90;;;;;;5085081;28;20434;-88
2022/10/07 07:43:09;;;;;;;3.92;3.40;;;16.80;99.90;;;;;;5092119;28;20381;-87
2022/10/07 07:45:36;;;;;;;4.70;3.30;;;16.90;99.90;;;;;;5083015;28;20379;-88
2022/10/07 07:48:04;;;;;;;4.65;3.55;;;16.80;99.90;;;;;;5092666;28;20467;-87
2022/10/07 07:50:31;;;;;;;12.73;8.53;;;16.90;99.90;;;;;;5084366;28;20378;-87
2022/10/07 07:53:01;;;;;;;5.22;3.75;;;16.80;99.90;;;;;;5092472;28;20384;-88
2022/10/07 07:55:28;;;;;;;3.45;3.15;;;16.80;99.90;;;;;;5083132;28;20454;-88
2022/10/07 07:57:55;;;;;;;3.90;3.40;;;16.80;99.90;;;;;;5093748;28;20421;-88
2022/10/07 08:00:22;;;;;;;3.65;3.28;;;16.80;99.90;;;;;;5092113;28;20374;-89
2022/10/07 08:02:49;;;;;;;3.45;3.05;;;16.80;99.90;;;;;;5094838;28;20377;-89
2022/10/07 08:05:16;;;;;;;4.30;3.90;;;16.80;99.90;;;;;;5094227;28;20404;-88
2022/10/07 08:07:45;;;;;;;4.00;3.17;;;16.70;99.90;;;;;;5076456;28;20378;-87
2022/10/07 08:10:12;;;;;;;3.47;3.17;;;16.70;99.90;;;;;;5074339;28;20386;-88
2022/10/07 08:12:39;;;;;;;4.35;3.30;;;16.70;99.90;;;;;;5077082;28;20394;-90
2022/10/07 08:15:06;;;;;;;3.25;2.90;;;16.70;99.90;;;;;;5044150;28;20387;-89
2022/10/07 08:17:33;;;;;;;3.00;2.70;;;16.70;99.90;;;;;;5057868;28;20366;-88
2022/10/07 08:20:00;;;;;;;3.90;3.05;;;16.70;99.90;;;;;;5076274;28;20382;-89
2022/10/07 08:22:27;;;;;;;3.22;2.92;;;16.70;99.90;;;;;;5061628;28;20371;-87
2022/10/07 08:24:58;;;;;;;3.40;3.10;;;16.60;99.90;;;;;;5061331;28;20439;-87
2022/10/07 08:27:27;;;;;;;3.40;3.10;;;16.70;99.90;;;;;;5080239;28;20413;-88
2022/10/07 08:29:56;;;;;;;3.30;3.00;;;16.60;99.90;;;;;;5079006;28;20378;-87
2022/10/07 08:32:23;;;;;;;3.53;3.22;;;16.70;99.90;;;;;;5075640;28;20382;-88
2022/10/07 08:34:50;;;;;;;3.60;3.20;;;16.60;99.90;;;;;;5063390;28;20431;-87
2022/10/07 08:37:17;;;;;;;3.65;3.25;;;16.60;99.90;;;;;;5076633;28;20388;-87
2022/10/07 08:39:44;;;;;;;3.45;3.15;;;16.60;99.90;;;;;;5076208;28;20424;-89
2022/10/07 08:42:39;;;;;;;3.50;3.20;;;16.60;99.90;;;;;;5075734;28;20374;-87
2022/10/07 08:45:13;;;;;;;3.80;3.43;;;16.60;99.90;;;;;;5063580;28;20438;-88
2022/10/07 08:47:45;;;;;;;3.95;3.38;;;16.60;99.90;;;;;;5075379;28;20394;-88
2022/10/07 08:50:24;;;;;;;3.72;3.42;;;16.70;99.90;;;;;;5075493;28;20374;-88
2022/10/07 08:53:01;;;;;;;4.82;3.42;;;16.70;99.90;;;;;;5076230;28;20943;-87
2022/10/07 08:55:45;;;;;;;5.00;3.60;;;16.60;99.90;;;;;;5041114;28;20378;-87
2022/10/07 08:58:30;;;;;;;4.30;3.28;;;16.60;99.90;;;;;;5074893;28;20382;-86
2022/10/07 09:01:16;;;;;;;4.90;3.83;;;16.70;99.90;;;;;;5074951;28;20394;-88
2022/10/07 09:04:09;;;;;;;4.60;4.20;;;16.60;99.90;;;;;;5061762;28;20460;-87
2022/10/07 09:06:42;;;;;;;4.93;4.03;;;16.60;99.90;;;;;;5059882;28;20439;-87
2022/10/07 09:09:31;;;;;;;5.03;4.20;;;16.60;99.90;;;;;;5074695;28;20370;-88
2022/10/07 09:12:04;;;;;;;4.65;4.10;;;16.60;99.90;;;;;;5073782;28;20935;-86
2022/10/07 09:14:37;;;;;;;4.20;3.80;;;16.60;99.90;;;;;;5074413;28;20370;-87
2022/10/07 09:17:42;;;;;;;3.83;3.53;;;16.60;99.90;;;;;;5056151;28;20402;-88
2022/10/07 09:20:17;;;;;;;3.90;3.60;;;16.50;99.90;;;;;;4992421;28;20388;-87
2022/10/07 09:22:56;;;;;;;4.00;3.70;;;16.50;99.90;;;;;;4992840;28;20478;-87
2022/10/07 09:25:27;;;;;;;4.30;3.70;;;16.50;99.90;;;;;;4990771;28;20584;-88
2022/10/07 09:27:55;;;;;;;3.80;3.50;;;16.50;99.90;;;;;;4978527;28;20419;-89
2022/10/07 09:30:24;;;;;;;3.77;3.47;;;16.50;99.90;;;;;;4992787;28;20955;-86
2022/10/07 09:32:57;;;;;;;3.58;3.10;;;16.50;99.90;;;;;;4992610;28;20389;-89
2022/10/07 09:35:26;;;;;;;3.30;3.00;;;16.50;99.90;;;;;;4993021;28;20479;-88
2022/10/07 09:41:18;;;;;;;3.40;3.10;;;16.40;99.90;;;;;;4978070;28;20440;-88
2022/10/07 09:44:03;;;;;;;3.40;3.10;;;16.40;99.90;;;;;;4975601;28;20389;-89
2022/10/07 09:46:59;;;;;;;3.33;3.10;;;16.40;99.90;;;;;;4975510;28;20924;-88
2022/10/07 09:49:28;;;;;;;2.92;2.70;;;16.40;99.90;;;;;;4992111;28;20460;-88
2022/10/07 09:52:01;;;;;;;3.05;2.85;;;16.40;99.90;;;;;;4984954;28;20386;-89
2022/10/07 09:54:32;;;;;;;3.47;3.15;;;16.40;99.90;;;;;;4987068;28;20375;-88
2022/10/07 09:57:02;;;;;;;3.53;3.00;;;16.30;99.90;;;;;;5050905;28;20370;-88
2022/10/07 09:59:32;;;;;;;3.47;3.17;;;16.30;99.90;;;;;;5071526;28;20399;-88
2022/10/07 10:02:13;;;;;;;3.17;2.95;;;16.30;99.90;;;;;;5057930;28;20946;-88
2022/10/07 10:04:46;;;;;;;3.20;3.00;;;16.30;99.90;;;;;;5071409;28;20401;-89
2022/10/07 10:07:34;;;;;;;3.40;3.10;;;16.30;99.90;;;;;;5071405;28;20437;-87
2022/10/07 10:10:16;;;;;;;3.25;3.00;;;16.30;99.90;;;;;;5071301;28;21238;-88
2022/10/07 10:12:50;;;;;;;4.25;3.00;;;16.30;99.90;;;;;;5071204;28;20415;-88
2022/10/07 10:15:26;;;;;;;3.70;3.30;;;16.30;99.90;;;;;;5071306;28;20455;-87
2022/10/07 10:17:55;;;;;;;3.30;3.00;;;16.30;99.90;;;;;;5053649;28;20788;-87
2022/10/07 10:20:28;;;;;;;3.10;2.90;;;16.30;99.90;;;;;;5071506;28;20381;-90
2022/10/07 10:22:55;;;;;;;3.65;3.20;;;16.30;99.90;;;;;;5074916;28;20868;-87
2022/10/07 10:28:39;;;;;;;3.38;3.17;;;16.20;99.90;;;;;;5061361;28;20373;-87
2022/10/07 10:31:37;;;;;;;3.87;3.50;;;16.20;99.90;;;;;;5070569;28;20366;-89
2022/10/07 10:34:49;;;;;;;4.07;3.13;;;16.20;99.90;;;;;;5060173;28;20385;-87
2022/10/07 10:37:25;;;;;;;3.33;3.03;;;16.20;99.90;;;;;;5070830;28;20366;-87
2022/10/07 10:40:24;;;;;;;4.83;3.40;;;16.20;99.90;;;;;;5057493;28;20793;-89
2022/10/07 10:43:12;;;;;;;3.63;3.33;;;16.20;99.90;;;;;;5070564;28;20392;-90
2022/10/07 10:46:04;;;;;;;3.55;3.30;;;16.10;99.90;;;;;;5070825;28;20381;-88
2022/10/07 10:48:43;;;;;;;3.63;3.35;;;16.10;99.90;;;;;;5070946;28;20453;-88
2022/10/07 10:51:42;;;;;;;3.60;3.30;;;16.10;99.90;;;;;;5070615;28;20869;-87
2022/10/07 10:54:20;;;;;;;3.33;3.03;;;16.10;99.90;;;;;;5057906;28;20488;-87
2022/10/07 10:57:04;;;;;;;3.50;3.00;;;16.10;99.90;;;;;;5070266;28;20370;-86
2022/10/07 10:59:39;;;;;;;3.75;3.10;;;16.20;99.90;;;;;;5073602;28;20373;-90
2022/10/07 11:02:36;;;;;;;3.30;3.00;;;16.10;99.90;;;;;;5074735;28;20372;-86
2022/10/07 11:05:13;;;;;;;3.05;2.80;;;16.10;99.90;;;;;;5056213;28;20413;-87
2022/10/07 11:08:15;;;;;;;3.30;3.00;;;16.10;99.90;;;;;;5074616;28;20893;-87
2022/10/07 11:11:05;;;;;;;3.88;2.92;;;16.20;99.90;;;;;;4993203;28;20388;-89
2022/10/07 11:13:32;;;;;;;3.30;3.00;;;16.20;99.90;;;;;;4992779;28;20471;-87
2022/10/07 11:16:09;;;;;;;3.40;3.10;;;16.10;99.90;;;;;;4993026;28;20920;-88
2022/10/07 11:19:15;;;;;;;3.15;2.95;;;16.20;99.90;;;;;;4993195;28;20396;-87
2022/10/07 11:21:54;;;;;;;3.80;3.10;;;16.20;99.90;;;;;;4979068;28;20421;-88
2022/10/07 11:24:42;;;;;;;3.40;3.10;;;16.20;99.90;;;;;;4993042;28;20389;-88
2022/10/07 11:27:24;;;;;;;3.33;3.03;;;16.20;99.90;;;;;;4979383;28;20414;-88
2022/10/07 11:29:56;;;;;;;3.40;3.10;;;16.20;99.90;;;;;;4992852;28;20412;-89
2022/10/07 11:32:27;;;;;;;3.20;2.90;;;16.20;99.90;;;;;;4978864;28;20528;-87
2022/10/07 11:35:09;;;;;;;3.33;3.03;;;16.20;99.90;;;;;;4985417;28;20387;-89
2022/10/07 11:38:08;;;;;;;3.40;3.20;;;16.20;99.90;;;;;;4988699;28;20419;-87
2022/10/07 11:40:50;;;;;;;3.67;3.37;;;16.20;99.90;;;;;;4992507;28;20372;-91
2022/10/07 11:43:29;;;;;;;3.88;3.28;;;16.20;99.90;;;;;;4979502;28;20377;-87
2022/10/07 11:46:03;;;;;;;3.25;3.00;;;16.20;99.90;;;;;;4992501;28;20428;-90
2022/10/07 11:48:44;;;;;;;3.40;3.20;;;16.20;99.90;;;;;;5061829;28;20455;-90
2022/10/07 11:51:34;;;;;;;3.47;3.03;;;16.20;99.90;;;;;;5077198;28;20499;-90
2022/10/07 11:54:04;;;;;;;3.47;3.28;;;16.20;99.90;;;;;;5068569;28;20372;-87
2022/10/07 11:56:52;;;;;;;3.10;2.90;;;16.20;99.90;;;;;;5054975;28;20380;-89
2022/10/07 11:59:40;;;;;;;3.33;3.08;;;16.20;99.90;;;;;;5067368;28;20408;-88
2022/10/07 12:02:28;;;;;;;3.50;3.20;;;16.20;99.90;;;;;;5062012;28;20405;-87
2022/10/07 12:04:59;;;;;;;3.00;2.70;;;16.20;99.90;;;;;;5074089;28;20461;-87
2022/10/07 12:07:32;;;;;;;3.10;2.90;;;16.20;99.90;;;;;;5073743;28;20494;-90
2022/10/07 12:10:02;;;;;;;3.05;2.78;;;16.20;99.90;;;;;;5072922;28;20869;-87
2022/10/07 12:12:44;;;;;;;2.90;2.70;;;16.30;99.90;;;;;;5073591;28;20976;-88
2022/10/07 12:15:26;;;;;;;5.80;2.88;;;16.30;99.90;;;;;;5055451;28;20410;-88
2022/10/07 12:18:04;;;;;;;3.10;2.83;;;16.30;99.90;;;;;;5073675;28;20384;-88
2022/10/07 12:20:33;;;;;;;3.40;2.70;;;16.30;99.90;;;;;;5073245;28;20366;-88
2022/10/07 12:26:04;;;;;;;2.83;2.60;;;16.30;99.90;;;;;;5059701;28;20412;-88
2022/10/07 12:28:46;;;;;;;3.22;2.58;;;16.30;99.90;;;;;;5073403;28;20397;-88
2022/10/07 12:31:16;;;;;;;3.75;2.60;;;16.30;99.90;;;;;;5059468;28;20370;-89
2022/10/07 12:33:46;;;;;;;2.85;2.55;;;16.30;99.90;;;;;;5073675;28;20721;-88
2022/10/07 12:36:28;;;;;;;2.80;2.60;;;16.30;99.90;;;;;;5073757;28;20443;-88
2022/10/07 12:38:58;;;;;;;2.67;2.50;;;16.30;99.90;;;;;;5073525;28;20362;-90
2022/10/07 12:41:35;;;;;;;2.73;2.53;;;16.30;99.90;;;;;;5073177;28;20877;-89
2022/10/07 12:44:17;;;;;;;2.90;2.70;;;16.30;99.90;;;;;;5055048;28;20381;-89
2022/10/07 12:46:52;;;;;;;3.00;2.80;;;16.30;99.90;;;;;;5052958;28;20403;-87
2022/10/07 12:49:42;;;;;;;2.87;2.67;;;16.20;99.90;;;;;;5066846;28;20378;-88
2022/10/07 12:52:32;;;;;;;2.97;2.70;;;16.30;99.90;;;;;;5072786;28;20406;-87
2022/10/07 12:55:01;;;;;;;3.38;3.08;;;16.30;99.90;;;;;;5054469;28;20374;-87
2022/10/07 12:57:40;;;;;;;3.10;2.80;;;16.20;99.90;;;;;;5073002;28;20382;-89
2022/10/07 13:00:13;;;;;;;3.90;2.90;;;16.20;99.90;;;;;;5072599;28;20370;-87
2022/10/07 13:02:58;;;;;;;2.83;2.63;;;16.20;99.90;;;;;;5072831;28;20426;-89
2022/10/07 13:06:01;;;;;;;3.03;2.80;;;16.30;99.90;;;;;;5059240;28;20398;-87
2022/10/07 13:09:01;;;;;;;3.10;2.90;;;16.30;99.90;;;;;;5072258;28;20854;-89
2022/10/07 13:11:40;;;;;;;3.03;2.83;;;16.30;99.90;;;;;;5054219;28;20401;-89
2022/10/07 13:14:14;;;;;;;3.20;3.00;;;16.30;99.90;;;;;;5063961;28;20400;-88
2022/10/07 13:17:14;;;;;;;4.28;3.15;;;16.40;99.90;;;;;;5067808;28;20768;-89
2022/10/07 13:19:53;;;;;;;3.35;3.15;;;16.30;99.90;;;;;;4990853;28;20404;-88
2022/10/07 13:22:23;;;;;;;4.57;3.30;;;16.40;99.90;;;;;;4989668;28;20395;-87
2022/10/07 13:24:53;;;;;;;3.50;3.17;;;16.30;99.90;;;;;;4990556;28;20385;-87
2022/10/07 13:27:27;;;;;;;3.38;3.17;;;16.30;99.90;;;;;;4990093;28;20416;-87
2022/10/07 13:29:57;;;;;;;3.50;3.30;;;16.30;99.90;;;;;;4990278;28;20425;-87
2022/10/07 13:32:28;;;;;;;3.67;3.38;;;16.30;99.90;;;;;;4990056;28;20562;-87
2022/10/07 13:34:56;;;;;;;4.40;4.00;;;16.30;99.90;;;;;;4990293;28;20396;-86
2022/10/07 13:37:35;;;;;;;3.97;3.60;;;16.30;99.90;;;;;;4990204;28;20416;-87